createdAt,value
2022-10-25T08:34:22.191Z,11.96
2022-10-25T10:02:07.379Z,13.90
2022-10-25T10:04:37.801Z,13.82
2022-10-25T10:07:13.237Z,14.08
2022-10-25T10:09:46.193Z,13.81
2022-10-25T10:12:21.440Z,14.15
2022-10-25T10:14:57.247Z,13.88
2022-10-25T10:17:30.099Z,14.17
2022-10-25T10:20:09.977Z,14.11
2022-10-25T10:22:39.473Z,14.24
2022-10-25T10:25:15.327Z,14.35
2022-10-25T10:27:43.128Z,14.55
2022-10-25T10:30:25.912Z,14.42
2022-10-25T10:32:57.835Z,14.36
2022-10-25T10:35:34.358Z,14.62
2022-10-25T10:38:24.685Z,14.73
2022-10-25T10:40:54.518Z,14.89
2022-10-25T10:43:30.198Z,14.94
2022-10-25T10:46:04.647Z,15.21
2022-10-25T10:48:41.916Z,14.71
2022-10-25T10:51:31.881Z,15.12
2022-10-25T10:54:12.776Z,15.02
2022-10-25T10:56:40.843Z,15.54
2022-10-25T10:59:26.997Z,15.57
2022-10-25T11:01:56.516Z,15.48
2022-10-25T11:04:26.376Z,15.18
2022-10-25T11:06:54.311Z,15.06
2022-10-25T11:09:25.518Z,14.78
2022-10-25T11:12:07.847Z,14.78
2022-10-25T11:14:35.740Z,14.72
2022-10-25T11:17:10.389Z,14.74
2022-10-25T11:19:52.265Z,14.82
2022-10-25T11:22:42.286Z,14.31
2022-10-25T11:25:23.675Z,14.16
2022-10-25T11:28:07.138Z,14.32
2022-10-25T11:30:43.993Z,14.15
2022-10-25T11:33:27.870Z,14.49
2022-10-25T11:36:22.992Z,14.40
2022-10-25T11:39:04.627Z,14.16
2022-10-25T11:41:43.163Z,14.65
2022-10-25T11:44:31.150Z,14.48
2022-10-25T11:47:08.360Z,14.41
2022-10-25T11:49:56.115Z,14.66
2022-10-25T11:52:47.493Z,14.82
2022-10-25T11:55:28.431Z,14.94
2022-10-25T11:58:08.825Z,14.86
2022-10-25T12:00:45.034Z,14.96
2022-10-25T12:03:26.866Z,15.00
2022-10-25T12:06:07.052Z,14.82
2022-10-25T12:08:48.340Z,14.86
2022-10-25T12:11:22.142Z,14.86
2022-10-25T12:13:52.886Z,14.61
2022-10-25T12:16:24.352Z,15.03
2022-10-25T12:19:00.226Z,14.52
2022-10-25T12:21:32.186Z,14.80
2022-10-25T12:24:02.927Z,14.78
2022-10-25T12:26:34.741Z,14.71
2022-10-25T12:29:04.500Z,14.92
2022-10-25T12:31:39.180Z,14.77
2022-10-25T12:34:12.978Z,14.90
2022-10-25T12:37:14.710Z,14.86
2022-10-25T12:39:46.518Z,14.92
2022-10-25T12:42:19.709Z,14.69
2022-10-25T12:45:10.382Z,14.42
2022-10-25T12:47:54.663Z,14.92
2022-10-25T12:50:37.913Z,14.72
2022-10-25T12:53:38.485Z,14.93
2022-10-25T12:56:21.052Z,14.93
2022-10-25T12:59:02.943Z,14.85
2022-10-25T13:01:50.577Z,14.76
2022-10-25T13:05:01.058Z,14.94
2022-10-25T13:07:32.792Z,14.80
2022-10-25T13:10:05.654Z,14.79
2022-10-25T13:12:34.902Z,14.74
2022-10-25T13:15:03.985Z,15.03
2022-10-25T13:18:03.006Z,15.02
2022-10-25T13:20:51.290Z,15.18
2022-10-25T13:24:02.702Z,15.26
2022-10-25T13:27:14.683Z,15.19
2022-10-25T13:30:27.374Z,15.12
2022-10-25T13:33:33.315Z,15.18
2022-10-25T13:36:06.507Z,15.15
2022-10-25T13:38:39.618Z,15.20
2022-10-25T13:41:19.521Z,15.25
2022-10-25T13:43:58.412Z,15.09
2022-10-25T13:46:32.778Z,14.96
2022-10-25T13:49:05.613Z,14.99
2022-10-25T13:51:33.858Z,14.86
2022-10-25T13:54:07.128Z,15.07
2022-10-25T13:56:38.081Z,15.12
2022-10-25T13:59:35.966Z,14.95
2022-10-25T14:02:18.540Z,14.88
2022-10-25T14:04:46.538Z,14.79
2022-10-25T14:07:46.875Z,14.80
2022-10-25T14:10:26.999Z,14.83
2022-10-25T14:13:02.742Z,14.57
2022-10-25T14:15:38.737Z,14.74
2022-10-25T14:18:17.969Z,14.69
2022-10-25T14:20:48.406Z,14.87
2022-10-25T14:23:21.821Z,14.60
2022-10-25T14:25:55.809Z,14.72
2022-10-25T14:28:26.903Z,14.49
2022-10-25T14:30:58.506Z,14.50
2022-10-25T14:33:30.187Z,14.28
2022-10-25T14:36:07.689Z,14.58
2022-10-25T14:38:39.132Z,14.49
2022-10-25T14:41:13.365Z,13.59
2022-10-25T14:43:42.577Z,14.20
2022-10-25T14:46:14.912Z,14.09
2022-10-25T14:48:46.699Z,14.55
2022-10-25T14:51:19.699Z,14.36
2022-10-25T14:53:52.208Z,14.35
2022-10-25T14:56:23.616Z,14.27
2022-10-25T14:58:51.772Z,14.08
2022-10-25T15:01:22.166Z,14.17
2022-10-25T15:03:54.079Z,14.02
2022-10-25T15:06:25.019Z,14.17
2022-10-25T15:09:16.150Z,14.21
2022-10-25T15:12:16.137Z,14.16
2022-10-25T15:14:43.884Z,14.44
2022-10-25T15:17:18.438Z,14.26
2022-10-25T15:20:02.092Z,14.06
2022-10-25T15:22:32.108Z,13.77
2022-10-25T15:24:59.898Z,13.91
2022-10-25T15:27:35.117Z,13.13
2022-10-25T15:30:04.697Z,13.71
2022-10-25T15:32:34.150Z,13.61
2022-10-25T15:35:03.681Z,13.32
2022-10-25T15:37:31.648Z,13.36
2022-10-25T15:39:59.463Z,13.30
2022-10-25T15:42:27.803Z,13.25
2022-10-25T15:44:55.484Z,13.10
2022-10-25T15:47:32.047Z,13.02
2022-10-25T15:50:00.615Z,12.46
2022-10-25T15:52:29.830Z,12.89
2022-10-25T15:54:57.551Z,12.86
2022-10-25T15:57:27.174Z,12.74
2022-10-25T15:59:54.871Z,12.68
2022-10-25T16:02:28.298Z,12.17
2022-10-25T16:04:55.980Z,12.44
2022-10-25T16:07:24.861Z,12.31
2022-10-25T16:09:53.937Z,11.45
2022-10-25T16:12:24.330Z,12.12
2022-10-25T16:14:53.219Z,12.12
2022-10-25T16:17:20.966Z,12.15
2022-10-25T16:19:48.688Z,11.44
2022-10-25T16:22:16.383Z,11.36
2022-10-25T16:24:44.214Z,11.52
2022-10-25T16:27:14.259Z,11.60
2022-10-25T16:29:42.298Z,11.13
2022-10-25T16:32:10.049Z,11.62
2022-10-25T16:34:37.773Z,10.90
2022-10-25T16:37:07.835Z,11.42
2022-10-25T16:39:39.449Z,11.41
2022-10-25T16:42:29.350Z,11.25
2022-10-25T16:44:57.079Z,11.24
2022-10-25T16:47:25.108Z,11.26
2022-10-25T16:49:55.007Z,11.05
2022-10-25T16:52:23.044Z,10.79
2022-10-25T16:54:50.697Z,10.55
2022-10-25T16:57:18.387Z,11.17
2022-10-25T16:59:47.440Z,10.39
2022-10-25T17:02:20.073Z,10.96
2022-10-25T17:04:48.606Z,10.38
2022-10-25T17:07:16.365Z,10.93
2022-10-25T17:09:44.489Z,10.83
2022-10-25T17:12:12.842Z,10.82
2022-10-25T17:14:40.520Z,10.73
2022-10-25T17:17:09.652Z,10.73
2022-10-25T17:19:37.499Z,10.79
2022-10-25T17:22:05.232Z,10.17
2022-10-25T17:24:35.920Z,9.71
2022-10-25T17:29:32.902Z,10.58
2022-10-25T17:32:01.646Z,10.52
2022-10-25T17:34:32.062Z,10.23
2022-10-25T17:37:00.205Z,10.32
2022-10-25T17:39:28.202Z,10.46
2022-10-25T17:41:55.975Z,10.17
2022-10-25T17:44:23.719Z,9.91
2022-10-25T17:46:52.041Z,10.32
2022-10-25T17:49:19.787Z,10.12
2022-10-25T17:51:48.922Z,10.28
2022-10-25T17:54:16.885Z,10.17
2022-10-25T17:56:44.570Z,10.27
2022-10-25T17:59:12.260Z,10.22
2022-10-25T18:01:40.432Z,9.89
2022-10-25T18:04:08.194Z,10.30
2022-10-25T18:06:35.870Z,9.48
2022-10-25T18:09:05.272Z,9.50
2022-10-25T18:11:33.959Z,10.10
2022-10-25T18:14:02.575Z,10.14
2022-10-25T18:16:31.936Z,10.04
2022-10-25T18:19:01.568Z,10.07
2022-10-25T18:21:29.724Z,10.05
2022-10-25T18:23:58.122Z,10.05
2022-10-25T18:26:28.240Z,9.87
2022-10-25T18:28:57.643Z,9.82
2022-10-25T18:31:27.001Z,9.93
2022-10-25T18:33:56.618Z,9.81
2022-10-25T18:36:24.602Z,9.69
2022-10-25T18:38:52.770Z,9.79
2022-10-25T18:41:23.724Z,9.67
2022-10-25T18:43:54.754Z,9.51
2022-10-25T18:46:22.644Z,9.71
2022-10-25T18:48:51.501Z,9.59
2022-10-25T18:51:21.073Z,9.70
2022-10-25T18:53:48.890Z,9.78
2022-10-25T18:56:21.099Z,9.72
2022-10-25T18:58:50.390Z,9.57
2022-10-25T19:01:24.268Z,9.55
2022-10-25T19:03:52.983Z,9.58
2022-10-25T19:06:20.917Z,9.59
2022-10-25T19:08:50.182Z,9.61
2022-10-25T19:11:18.006Z,9.55
2022-10-25T19:13:48.916Z,9.06
2022-10-25T19:16:20.509Z,9.54
2022-10-25T19:18:48.251Z,9.15
2022-10-25T19:21:18.310Z,9.27
2022-10-25T19:23:47.012Z,9.22
2022-10-25T19:26:16.770Z,9.18
2022-10-25T19:28:44.500Z,9.36
2022-10-25T19:31:14.605Z,9.38
2022-10-25T19:33:47.150Z,9.39
2022-10-25T19:36:15.513Z,9.38
2022-10-25T19:38:48.261Z,9.33
2022-10-25T19:41:17.802Z,9.13
2022-10-25T19:43:47.063Z,9.38
2022-10-25T19:46:16.771Z,9.29
2022-10-25T19:48:45.890Z,9.07
2022-10-25T19:51:16.256Z,9.28
2022-10-25T19:53:44.754Z,9.33
2022-10-25T19:56:14.060Z,9.25
2022-10-25T19:58:42.285Z,9.23
2022-10-25T20:01:13.533Z,9.13
2022-10-25T20:03:42.109Z,9.22
2022-10-25T20:06:13.652Z,9.20
2022-10-25T20:08:41.435Z,9.18
2022-10-25T20:11:11.654Z,9.09
2022-10-25T20:13:39.461Z,9.14
2022-10-25T20:16:08.589Z,9.15
2022-10-25T20:18:38.305Z,9.13
2022-10-25T20:21:08.816Z,9.04
2022-10-25T20:23:39.766Z,9.02
2022-10-25T20:26:12.613Z,9.19
2022-10-25T20:28:40.544Z,8.16
2022-10-25T20:31:08.440Z,9.16
2022-10-25T20:33:36.168Z,8.75
2022-10-25T20:36:07.378Z,8.95
2022-10-25T20:38:36.210Z,9.02
2022-10-25T20:41:06.469Z,8.48
2022-10-25T20:43:34.760Z,9.14
2022-10-25T20:46:02.874Z,9.08
2022-10-25T20:48:31.121Z,9.11
2022-10-25T20:50:58.807Z,9.07
2022-10-25T20:53:26.515Z,9.02
2022-10-25T20:55:54.656Z,9.00
2022-10-25T20:58:24.127Z,9.06
2022-10-25T21:00:54.885Z,9.08
2022-10-25T21:03:23.052Z,9.05
2022-10-25T21:05:53.556Z,8.92
2022-10-25T21:08:22.856Z,9.00
2022-10-25T21:10:56.390Z,8.95
2022-10-25T21:13:26.992Z,8.97
2022-10-25T21:15:54.812Z,8.52
2022-10-25T21:18:22.706Z,9.03
2022-10-25T21:20:50.621Z,9.01
2022-10-25T21:23:18.331Z,9.15
2022-10-25T21:25:46.132Z,9.12
2022-10-25T21:28:13.878Z,9.17
2022-10-25T21:30:43.647Z,9.20
2022-10-25T21:33:11.289Z,9.07
2022-10-25T21:35:38.925Z,9.09
2022-10-25T21:38:06.615Z,9.18
2022-10-25T21:40:34.293Z,9.19
2022-10-25T21:43:01.959Z,9.14
2022-10-25T21:45:29.623Z,9.12
2022-10-25T21:47:58.647Z,9.12
2022-10-25T21:50:26.347Z,9.10
2022-10-25T21:52:54.097Z,8.96
2022-10-25T21:55:21.773Z,8.01
2022-10-25T21:57:50.575Z,8.87
2022-10-25T22:00:21.758Z,8.86
2022-10-25T22:02:49.451Z,8.86
2022-10-25T22:05:18.572Z,9.13
2022-10-25T22:07:46.546Z,8.39
2022-10-25T22:10:14.674Z,8.92
2022-10-25T22:12:42.322Z,8.09
2022-10-25T22:15:10.577Z,8.71
2022-10-25T22:17:38.249Z,8.57
2022-10-25T22:20:07.111Z,8.65
2022-10-25T22:22:36.322Z,8.60
2022-10-25T22:25:04.202Z,8.57
2022-10-25T22:27:31.854Z,8.05
2022-10-25T22:29:59.547Z,8.37
2022-10-25T22:32:27.281Z,8.47
2022-10-25T22:34:54.979Z,8.37
2022-10-25T22:37:22.650Z,8.56
2022-10-25T22:39:51.675Z,8.55
2022-10-25T22:42:19.309Z,8.51
2022-10-25T22:44:46.927Z,8.50
2022-10-25T22:47:14.611Z,8.41
2022-10-25T22:49:42.273Z,8.50
2022-10-25T22:52:11.382Z,7.59
2022-10-25T22:54:39.071Z,8.53
2022-10-25T22:57:08.078Z,8.37
2022-10-25T22:59:35.796Z,7.86
2022-10-25T23:02:03.509Z,7.83
2022-10-25T23:04:31.274Z,7.85
2022-10-25T23:06:59.600Z,8.55
2022-10-25T23:09:31.431Z,8.55
2022-10-25T23:11:59.066Z,8.53
2022-10-25T23:14:28.062Z,7.88
2022-10-25T23:16:56.128Z,8.55
2022-10-25T23:19:23.800Z,8.54
2022-10-25T23:21:51.484Z,7.92
2022-10-25T23:24:19.275Z,8.55
2022-10-25T23:26:47.162Z,8.63
2022-10-25T23:29:14.889Z,8.78
2022-10-25T23:31:43.936Z,8.35
2022-10-25T23:34:12.300Z,8.42
2022-10-25T23:36:40.018Z,8.63
2022-10-25T23:39:10.827Z,8.74
2022-10-25T23:41:39.113Z,8.73
2022-10-25T23:44:06.890Z,8.31
2022-10-25T23:46:34.585Z,8.61
2022-10-25T23:49:03.626Z,8.90
2022-10-25T23:51:31.318Z,8.83
2022-10-25T23:53:59.013Z,8.87
2022-10-25T23:56:26.907Z,8.95
2022-10-25T23:58:54.647Z,8.62
